Time;durP1;ratioP1;P1;durP2;ratioP2;P2;SDS_P1;SDS_P2;PMS_P1;PMS_P2;Temp;Humidity;BMP_temperature;BMP_pressure;BME280_temperature;BME280_humidity;BME280_pressure;Samples;Min_cycle;Max_cycle;Signal;HPM_P1;HPM_P2
2022/07/19 00:00:12;;;;;;;5.68;3.40;;;21.20;86.60;;;18.63;82.51;100851.50;5038463;28;20116;-78
2022/07/19 00:02:39;;;;;;;9.23;3.85;;;21.20;86.80;;;18.57;82.78;100850.50;5051348;28;20037;-77
2022/07/19 00:05:09;;;;;;;9.00;3.50;;;21.10;87.30;;;18.58;82.62;100849.44;5051255;28;20033;-78
2022/07/19 00:07:37;;;;;;;5.40;3.13;;;21.10;87.10;;;18.59;82.77;100851.13;5051368;28;20124;-78
2022/07/19 00:10:07;;;;;;;10.07;3.42;;;21.10;87.20;;;18.55;83.14;100845.22;5050394;28;20128;-77
2022/07/19 00:12:36;;;;;;;5.78;3.03;;;21.10;87.40;;;18.57;83.18;100842.25;5051038;28;20051;-77
2022/07/19 00:15:05;;;;;;;8.20;3.65;;;21.10;87.50;;;18.51;83.98;100837.66;5051060;28;20041;-77
2022/07/19 00:17:33;;;;;;;9.57;3.38;;;21.10;87.80;;;18.45;84.31;100841.31;5051307;28;20228;-78
2022/07/19 00:20:00;;;;;;;6.78;3.78;;;21.10;88.00;;;18.47;84.35;100833.69;5050326;28;20675;-78
2022/07/19 00:22:27;;;;;;;8.05;3.53;;;21.00;88.20;;;18.43;85.08;100824.16;5050892;28;20115;-78
2022/07/19 00:24:55;;;;;;;5.40;2.97;;;21.00;88.60;;;18.39;85.84;100820.19;5050589;28;20037;-77
2022/07/19 00:27:22;;;;;;;7.43;3.58;;;21.00;88.80;;;18.32;85.94;100829.38;5050730;28;20055;-77
2022/07/19 00:29:51;;;;;;;5.40;3.13;;;20.90;89.00;;;18.30;85.75;100826.00;5049869;28;20407;-78
2022/07/19 00:32:18;;;;;;;7.03;3.13;;;20.90;88.80;;;18.33;85.51;100821.94;5050778;28;20049;-77
2022/07/19 00:34:45;;;;;;;9.00;3.63;;;20.90;88.80;;;18.28;85.68;100828.16;5050539;28;20456;-77
2022/07/19 00:37:12;;;;;;;6.60;3.65;;;20.90;88.90;;;18.28;85.65;100822.63;5050649;28;20120;-77
2022/07/19 00:39:40;;;;;;;7.47;3.35;;;20.80;88.80;;;18.26;85.95;100823.91;5049330;28;20135;-77
2022/07/19 00:42:08;;;;;;;5.47;3.53;;;20.80;88.80;;;18.24;86.81;100820.56;5032419;28;20060;-77
2022/07/19 00:44:35;;;;;;;6.57;3.50;;;20.80;89.40;;;18.20;86.78;100813.81;5050570;28;20037;-77
2022/07/19 00:47:06;;;;;;;6.05;3.30;;;20.80;89.70;;;18.15;86.85;100811.75;5050371;28;20044;-78
2022/07/19 00:49:33;;;;;;;7.38;3.50;;;20.80;89.50;;;18.14;86.46;100815.56;5049465;28;20123;-77
2022/07/19 00:52:03;;;;;;;5.45;3.50;;;20.80;89.50;;;18.13;86.90;100813.91;5050113;28;20489;-77
2022/07/19 00:54:31;;;;;;;6.50;3.65;;;20.80;89.60;;;18.10;88.06;100812.41;5050271;28;20127;-77
2022/07/19 00:57:00;;;;;;;4.88;3.10;;;20.70;90.10;;;18.09;88.17;100812.69;5050155;28;20040;-77
2022/07/19 00:59:29;;;;;;;5.95;3.10;;;20.70;90.20;;;18.07;88.08;100814.81;5049319;28;20044;-77
2022/07/19 01:01:57;;;;;;;7.03;3.42;;;20.70;90.20;;;18.03;88.69;100817.19;5050175;28;20079;-77
2022/07/19 01:04:25;;;;;;;6.47;3.58;;;20.70;90.40;;;18.02;88.39;100814.66;5049950;28;20041;-78
2022/07/19 01:06:52;;;;;;;7.15;3.63;;;20.70;90.40;;;18.01;88.79;100815.69;5050337;28;20055;-77
2022/07/19 01:09:20;;;;;;;4.90;3.20;;;20.60;90.50;;;17.98;88.69;100811.50;5049234;28;20036;-77
2022/07/19 01:11:47;;;;;;;8.57;3.78;;;20.60;90.50;;;17.96;88.85;100814.47;5032233;28;20473;-77
2022/07/19 01:14:15;;;;;;;6.10;2.85;;;20.60;90.60;;;17.96;88.96;100817.22;5049873;28;20055;-77
2022/07/19 01:16:45;;;;;;;8.52;3.22;;;20.60;90.70;;;17.93;89.19;100812.19;5050063;28;20044;-77
2022/07/19 01:19:13;;;;;;;5.93;3.50;;;20.60;90.90;;;17.93;89.39;100814.94;5047414;28;20110;-77
2022/07/19 01:21:42;;;;;;;9.15;3.28;;;20.50;91.20;;;17.92;89.99;100807.72;5029790;28;20371;-78
2022/07/19 01:24:10;;;;;;;9.98;3.20;;;20.50;91.30;;;17.88;90.01;100811.19;5029747;28;20037;-77
2022/07/19 01:26:37;;;;;;;6.03;3.10;;;20.50;91.60;;;17.85;90.15;100812.47;5029770;28;20049;-78
2022/07/19 01:29:04;;;;;;;6.38;3.35;;;20.50;91.60;;;17.81;90.46;100807.59;5028944;28;20107;-78
2022/07/19 01:31:31;;;;;;;8.13;3.28;;;20.50;91.60;;;17.82;90.39;100807.38;5029732;28;20046;-77
2022/07/19 01:33:59;;;;;;;5.75;2.90;;;20.50;91.80;;;17.82;90.19;100807.38;5029782;28;20149;-77
2022/07/19 01:36:26;;;;;;;6.57;3.45;;;20.40;91.80;;;17.79;90.83;100810.56;5029801;28;20049;-77
2022/07/19 01:38:54;;;;;;;6.28;3.17;;;20.40;92.00;;;17.77;90.51;100807.22;5029014;28;20041;-78
2022/07/19 01:41:22;;;;;;;12.52;3.90;;;20.40;91.90;;;17.74;90.63;100810.41;5029858;28;20048;-78
2022/07/19 01:43:49;;;;;;;7.90;3.70;;;20.40;91.70;;;17.75;90.69;100809.34;5029743;28;20395;-77
2022/07/19 01:46:16;;;;;;;7.43;3.20;;;20.40;92.10;;;17.72;90.67;100798.78;5029676;28;20056;-77
2022/07/19 01:48:43;;;;;;;8.48;3.55;;;20.30;91.90;;;17.67;92.02;100807.72;5028878;28;20049;-77
2022/07/19 01:51:10;;;;;;;8.23;3.50;;;20.40;92.20;;;17.63;91.66;100802.88;5029757;28;20049;-77
2022/07/19 01:53:38;;;;;;;7.72;3.15;;;20.40;92.20;;;17.63;91.85;100805.63;5032453;28;20513;-77
2022/07/19 01:56:07;;;;;;;5.28;3.30;;;20.30;92.40;;;17.60;92.01;100804.16;5043817;28;20127;-77
2022/07/19 01:58:34;;;;;;;7.18;3.40;;;20.30;92.30;;;17.57;92.00;100805.47;5052747;28;20124;-78
2022/07/19 02:01:02;;;;;;;6.45;3.50;;;20.30;92.50;;;17.57;92.46;100808.22;5053325;28;20041;-78
2022/07/19 02:03:29;;;;;;;5.88;3.33;;;20.30;92.60;;;17.54;92.84;100808.66;5053277;28;20045;-77
2022/07/19 02:05:57;;;;;;;6.28;3.35;;;20.30;92.90;;;17.50;92.71;100804.69;5053437;28;20044;-77
2022/07/19 02:08:24;;;;;;;8.20;3.05;;;20.20;92.80;;;17.46;92.71;100808.94;5052655;28;20041;-77
2022/07/19 02:10:51;;;;;;;5.60;3.28;;;20.20;92.80;;;17.46;92.67;100799.81;5053318;28;20051;-77
2022/07/19 02:13:20;;;;;;;9.93;4.13;;;20.20;92.90;;;17.45;92.66;100796.25;5053218;28;20041;-77
2022/07/19 02:15:47;;;;;;;6.35;3.53;;;20.20;92.90;;;17.42;92.83;100796.69;5053522;28;20151;-78
2022/07/19 02:18:14;;;;;;;8.52;3.58;;;20.10;93.10;;;17.37;93.11;100791.84;5052898;28;20516;-78
2022/07/19 02:20:42;;;;;;;9.13;3.53;;;20.10;93.00;;;17.36;93.20;100800.31;5052805;28;20123;-77
2022/07/19 02:23:09;;;;;;;9.93;3.55;;;20.10;93.10;;;17.32;93.74;100794.41;5053070;28;20045;-77
2022/07/19 02:25:36;;;;;;;8.55;3.33;;;20.10;93.30;;;17.28;93.81;100784.94;5053176;28;20033;-78
2022/07/19 02:28:04;;;;;;;6.47;3.40;;;20.10;93.50;;;17.29;93.58;100791.28;5052914;28;20041;-78
2022/07/19 02:30:33;;;;;;;6.38;3.55;;;20.00;93.30;;;17.25;94.01;100790.91;5052096;28;20044;-78
2022/07/19 02:33:00;;;;;;;7.28;3.60;;;20.00;93.50;;;17.24;94.12;100783.69;5052809;28;20544;-78
2022/07/19 02:35:27;;;;;;;7.78;3.80;;;20.00;93.60;;;17.22;93.88;100785.81;5052687;28;20591;-77
2022/07/19 02:37:54;;;;;;;7.80;3.30;;;20.00;93.60;;;17.18;94.61;100785.44;5052800;28;20045;-77
2022/07/19 02:40:21;;;;;;;5.72;3.40;;;20.00;93.80;;;17.17;95.14;100788.38;5051529;28;20045;-78
2022/07/19 02:42:48;;;;;;;7.57;3.33;;;20.00;94.20;;;17.17;95.04;100789.25;5052775;28;20053;-77
2022/07/19 02:45:15;;;;;;;7.93;3.55;;;19.90;94.00;;;17.14;95.23;100781.44;5052667;28;20041;-77
2022/07/19 02:47:44;;;;;;;6.43;3.38;;;19.90;94.20;;;17.15;95.21;100782.25;5052790;28;20081;-77
2022/07/19 02:50:11;;;;;;;7.55;3.40;;;19.90;94.20;;;17.15;95.25;100777.63;5051850;28;20049;-78
2022/07/19 02:52:38;;;;;;;9.15;3.58;;;19.90;94.30;;;17.13;94.99;100782.47;5052695;28;20045;-78
2022/07/19 02:55:07;;;;;;;6.72;3.47;;;19.90;94.10;;;17.12;94.83;100782.72;5052320;28;20489;-78
2022/07/19 02:57:34;;;;;;;6.53;3.50;;;19.90;94.30;;;17.12;94.75;100775.31;5052697;28;20583;-77
2022/07/19 03:00:01;;;;;;;7.90;3.20;;;19.80;94.10;;;17.13;95.18;100782.47;5051488;28;20045;-78
2022/07/19 03:02:28;;;;;;;6.40;3.47;;;19.80;94.30;;;17.10;95.14;100776.59;5052308;28;20049;-77
2022/07/19 03:04:57;;;;;;;5.07;2.90;;;19.80;94.20;;;17.05;95.24;100771.75;5051648;28;20114;-77
2022/07/19 03:07:24;;;;;;;5.72;3.40;;;19.80;94.20;;;17.04;95.35;100777.47;5052130;28;20040;-78
2022/07/19 03:09:51;;;;;;;9.68;3.33;;;19.80;94.20;;;17.04;95.11;100772.84;5051330;28;20123;-78
2022/07/19 03:12:18;;;;;;;6.32;3.42;;;19.70;94.40;;;17.04;95.30;100772.84;5052165;28;20045;-78
2022/07/19 03:14:45;;;;;;;9.48;3.28;;;19.70;94.30;;;17.05;95.20;100774.50;5052000;28;20131;-78
2022/07/19 03:17:13;;;;;;;7.40;4.05;;;19.80;94.40;;;17.03;95.37;100771.13;5052103;28;20144;-77
2022/07/19 03:19:41;;;;;;;7.00;3.15;;;19.80;94.50;;;16.99;95.40;100767.16;5051305;28;20052;-77
2022/07/19 03:22:09;;;;;;;6.45;3.40;;;19.70;94.50;;;16.99;95.45;100769.91;5052042;28;20140;-77
2022/07/19 03:24:36;;;;;;;6.90;3.20;;;19.70;94.60;;;16.99;95.60;100776.22;5036627;28;20041;-78
2022/07/19 03:27:04;;;;;;;9.48;3.40;;;19.70;94.80;;;16.98;95.68;100777.31;5032077;28;20057;-77
2022/07/19 03:29:31;;;;;;;6.68;3.33;;;19.70;94.80;;;16.97;94.97;100772.03;5031108;28;20041;-77
2022/07/19 03:31:58;;;;;;;7.63;3.33;;;19.70;94.60;;;16.93;95.31;100774.38;5032024;28;20041;-77
2022/07/19 03:34:26;;;;;;;5.72;3.40;;;19.70;94.60;;;16.93;95.62;100771.63;5031630;28;20047;-78
2022/07/19 03:36:53;;;;;;;7.75;3.63;;;19.70;94.70;;;16.91;95.67;100772.91;5031757;28;20056;-78
2022/07/19 03:39:22;;;;;;;7.90;3.78;;;19.60;94.70;;;16.89;95.91;100775.88;5030930;28;20073;-78
2022/07/19 03:41:49;;;;;;;6.82;3.53;;;19.60;94.80;;;16.94;95.47;100775.22;5031674;28;20045;-77
2022/07/19 03:44:16;;;;;;;6.68;3.20;;;19.60;94.70;;;16.96;95.42;100779.44;5031584;28;20136;-77
2022/07/19 03:46:43;;;;;;;6.97;3.30;;;19.60;94.80;;;16.98;95.42;100779.19;5031654;28;20083;-77
2022/07/19 03:49:10;;;;;;;10.13;3.63;;;19.60;94.90;;;16.97;95.48;100783.88;5030755;28;20044;-77
2022/07/19 03:51:37;;;;;;;8.55;3.30;;;19.60;94.90;;;16.97;95.30;100777.53;5031673;28;20045;-77
2022/07/19 03:54:05;;;;;;;6.45;3.35;;;19.60;94.90;;;17.05;95.02;100781.94;5031501;28;20121;-77
2022/07/19 03:56:33;;;;;;;6.22;3.35;;;19.60;94.90;;;17.05;95.94;100780.00;5050910;28;20033;-77
2022/07/19 03:59:00;;;;;;;6.40;3.38;;;19.60;95.20;;;17.04;95.75;100774.72;5050536;28;20044;-77
2022/07/19 04:01:27;;;;;;;5.88;3.30;;;19.60;95.30;;;17.05;95.74;100779.16;5051333;28;20068;-77
2022/07/19 04:03:54;;;;;;;6.35;3.25;;;19.60;95.30;;;17.07;95.66;100772.38;5068070;22;20045;-81
2022/07/19 04:06:22;;;;;;;5.45;3.30;;;19.60;95.50;;;17.11;95.65;100775.53;5071070;28;20064;-81
2022/07/19 04:08:49;;;;;;;7.03;3.10;;;19.60;95.60;;;17.15;95.81;100779.53;5070253;28;20044;-81
2022/07/19 04:11:16;;;;;;;8.07;3.58;;;19.60;95.70;;;17.19;95.59;100769.75;5070913;28;20048;-81
2022/07/19 04:13:44;;;;;;;8.23;3.13;;;19.60;95.80;;;17.26;95.21;100775.22;5070775;28;20055;-81
2022/07/19 04:16:12;;;;;;;7.22;3.42;;;19.60;95.80;;;17.29;95.16;100769.28;5069894;28;20060;-81
2022/07/19 04:18:39;;;;;;;7.53;4.05;;;19.70;96.00;;;17.33;94.99;100770.53;5070037;28;20059;-81
2022/07/19 04:21:06;;;;;;;6.20;3.70;;;19.60;95.90;;;17.37;94.51;100775.34;5070809;28;20067;-81
2022/07/19 04:23:33;;;;;;;6.25;3.10;;;19.60;95.70;;;17.48;94.17;100773.78;5070798;28;20056;-81
2022/07/19 04:26:01;;;;;;;6.22;3.17;;;19.70;95.80;;;17.52;94.51;100775.03;5070841;28;20407;-81
2022/07/19 04:28:28;;;;;;;6.60;3.10;;;19.70;95.90;;;17.62;93.77;100773.69;5070017;28;20127;-81
2022/07/19 04:30:56;;;;;;;9.35;3.20;;;19.70;95.90;;;17.69;93.75;100778.06;5070611;28;20043;-81
2022/07/19 04:33:24;;;;;;;6.45;3.35;;;19.70;96.00;;;17.74;93.97;100774.63;5070785;28;20099;-81
2022/07/19 04:35:53;;;;;;;7.35;4.40;;;19.70;96.30;;;17.78;93.59;100779.47;5070487;28;20055;-81
2022/07/19 04:38:20;;;;;;;8.15;4.07;;;19.80;96.20;;;17.86;93.61;100781.13;5070114;28;20106;-81
2022/07/19 04:40:48;;;;;;;6.38;3.75;;;19.80;96.40;;;17.92;93.50;100780.19;5070447;28;20132;-81
2022/07/19 04:43:16;;;;;;;9.50;3.60;;;19.90;96.40;;;18.03;93.44;100775.00;5070272;28;20048;-81
2022/07/19 04:45:44;;;;;;;8.57;3.55;;;19.90;96.60;;;18.10;93.13;100784.88;5070182;28;20131;-81
2022/07/19 04:48:13;;;;;;;7.50;3.60;;;19.90;96.70;;;18.22;92.84;100779.47;5069916;28;20052;-81
2022/07/19 04:50:41;;;;;;;7.70;3.90;;;20.00;96.70;;;18.29;92.46;100773.88;5069806;28;20047;-81
2022/07/19 04:53:08;;;;;;;6.30;3.58;;;20.00;96.70;;;18.42;92.34;100778.41;5070237;28;20040;-81
2022/07/19 04:55:38;;;;;;;8.77;3.92;;;20.10;96.60;;;18.56;91.92;100788.19;5070108;28;20044;-81
2022/07/19 04:58:06;;;;;;;9.40;3.45;;;20.10;96.60;;;18.70;91.25;100772.34;5070155;28;20048;-81
2022/07/19 05:00:33;;;;;;;8.38;3.58;;;20.20;96.70;;;18.81;90.72;100776.22;5069494;28;20516;-81
2022/07/19 05:03:00;;;;;;;8.93;3.35;;;20.20;96.50;;;18.99;90.14;100776.19;5070211;28;20036;-81
2022/07/19 05:05:29;;;;;;;7.22;3.55;;;20.30;96.50;;;19.10;89.70;100771.81;5070018;28;20060;-81
2022/07/19 05:07:56;;;;;;;8.23;3.38;;;20.40;96.50;;;19.20;89.78;100769.31;5070105;28;20036;-81
2022/07/19 05:10:23;;;;;;;7.60;3.42;;;20.40;96.60;;;19.38;89.22;100768.41;5069087;28;20047;-82
2022/07/19 05:12:51;;;;;;;5.93;3.22;;;20.50;96.70;;;19.43;88.96;100765.75;5069857;28;20047;-81
2022/07/19 05:15:18;;;;;;;7.13;3.17;;;20.60;96.70;;;19.56;88.38;100772.97;5069866;28;20033;-82
2022/07/19 05:17:45;;;;;;;8.13;3.38;;;20.60;96.60;;;19.82;86.52;100766.19;5069858;28;20060;-82
2022/07/19 05:20:15;;;;;;;6.50;3.35;;;20.70;95.80;;;19.85;88.13;100762.09;5068978;28;20045;-81
2022/07/19 05:22:44;;;;;;;10.98;3.33;;;20.80;96.60;;;19.85;88.09;100765.69;5069729;28;20040;-81
2022/07/19 05:25:11;;;;;;;7.75;3.45;;;20.80;96.60;;;19.96;87.32;100766.78;5069661;28;20041;-82
2022/07/19 05:27:38;;;;;;;9.60;3.40;;;20.80;96.70;;;20.06;87.13;100764.25;5069651;28;20052;-81
2022/07/19 05:30:07;;;;;;;8.10;3.70;;;20.90;96.80;;;20.13;85.89;100755.03;5068948;28;20045;-82
2022/07/19 05:32:34;;;;;;;6.65;3.33;;;20.90;96.20;;;20.24;85.40;100762.44;5069308;28;20048;-81
2022/07/19 05:35:01;;;;;;;7.50;3.28;;;21.00;96.10;;;20.37;81.96;100761.31;5051671;28;20493;-82
2022/07/19 05:37:29;;;;;;;5.70;3.25;;;21.00;95.50;;;20.56;81.46;100764.75;5049685;28;20040;-81
2022/07/19 05:39:58;;;;;;;8.50;3.42;;;21.10;94.60;;;20.65;81.96;100758.63;5048951;28;20051;-82
2022/07/19 05:42:25;;;;;;;6.43;3.00;;;21.10;94.60;;;20.74;77.42;100763.78;5049665;28;20607;-81
2022/07/19 05:44:52;;;;;;;5.30;2.63;;;21.20;93.40;;;20.89;77.88;100764.09;5049553;28;20467;-81
2022/07/19 05:47:20;;;;;;;8.50;3.03;;;21.20;92.70;;;21.01;77.76;100759.31;5049518;28;20368;-81
2022/07/19 05:49:47;;;;;;;10.30;3.50;;;21.30;92.50;;;21.11;77.94;100755.06;5048703;28;20048;-81
2022/07/19 05:52:14;;;;;;;10.40;3.42;;;21.40;92.90;;;21.21;77.57;100766.31;5049408;28;20417;-82
2022/07/19 05:54:41;;;;;;;13.68;3.42;;;21.40;92.70;;;21.29;74.67;100758.44;5049375;28;20037;-81
2022/07/19 05:57:11;;;;;;;12.00;3.40;;;21.50;92.30;;;21.52;71.05;100759.44;5049373;28;20700;-81
2022/07/19 05:59:38;;;;;;;8.70;3.05;;;21.60;89.20;;;22.56;67.62;100757.91;5048629;28;20056;-81
2022/07/19 06:02:05;;;;;;;10.05;3.38;;;21.80;88.30;;;25.01;57.73;100737.72;5049547;28;20080;-82
2022/07/19 06:04:32;;;;;;;9.82;3.42;;;22.00;86.70;;;25.57;54.94;100745.34;5059463;28;20053;-81
2022/07/19 06:06:59;;;;;;;9.30;3.17;;;22.30;85.70;;;25.08;55.66;100743.06;5069535;28;20044;-81
2022/07/19 06:09:26;;;;;;;9.95;3.45;;;22.70;84.50;;;26.07;53.17;100740.81;5068703;28;20412;-82
2022/07/19 06:11:54;;;;;;;15.27;3.60;;;23.10;82.90;;;29.00;45.91;100743.97;5069441;28;20068;-82
2022/07/19 06:14:23;;;;;;;11.38;3.20;;;23.60;81.30;;;31.55;40.23;100742.88;5069346;28;20040;-82
2022/07/19 06:16:50;;;;;;;10.40;2.92;;;23.90;80.10;;;33.15;36.53;100741.13;5069250;28;20040;-82
2022/07/19 06:19:17;;;;;;;9.13;3.10;;;24.40;79.10;;;34.05;34.43;100738.34;5068437;28;20473;-82
2022/07/19 06:21:44;;;;;;;8.27;3.50;;;24.70;78.10;;;34.67;33.29;100747.38;5069254;28;20040;-82
2022/07/19 06:24:11;;;;;;;6.82;2.80;;;25.00;77.30;;;35.01;32.35;100743.47;5069112;28;20110;-82
2022/07/19 06:26:38;;;;;;;6.32;2.70;;;25.10;77.90;;;35.22;34.27;100756.81;5069133;28;20052;-82
2022/07/19 06:29:06;;;;;;;6.97;3.13;;;25.20;78.60;;;34.46;32.83;100739.66;5050241;28;20424;-82
2022/07/19 06:31:35;;;;;;;5.85;2.78;;;25.30;78.50;;;31.36;36.77;100750.66;5069065;28;20594;-82
2022/07/19 06:34:02;;;;;;;7.50;2.97;;;25.30;76.50;;;29.10;42.41;100748.59;5069068;28;20135;-82
2022/07/19 06:36:29;;;;;;;5.30;2.40;;;25.30;76.30;;;27.83;48.58;100749.84;5069073;28;20068;-82
2022/07/19 06:38:56;;;;;;;5.55;2.70;;;25.30;78.30;;;27.10;50.16;100759.91;5070040;28;20040;-82
2022/07/19 06:41:24;;;;;;;8.15;2.72;;;25.30;78.30;;;26.74;49.64;100757.34;5072768;28;20048;-81
2022/07/19 06:43:51;;;;;;;8.90;3.45;;;25.30;77.20;;;26.57;50.10;100765.22;5072806;28;20080;-82
2022/07/19 06:46:18;;;;;;;8.45;2.70;;;25.30;76.90;;;26.50;49.43;100763.56;5072733;28;20606;-82
2022/07/19 06:48:46;;;;;;;8.98;3.30;;;25.30;75.30;;;26.44;52.53;100764.69;5071851;28;20052;-82
2022/07/19 06:51:13;;;;;;;8.05;2.90;;;25.30;78.50;;;26.40;53.45;100762.75;5072596;28;20051;-80
2022/07/19 06:53:41;;;;;;;8.02;2.83;;;25.30;79.00;;;26.40;51.93;100758.00;5072433;28;20087;-80
2022/07/19 06:56:08;;;;;;;11.38;2.95;;;25.30;77.20;;;26.43;50.62;100765.81;5072324;28;20094;-80
2022/07/19 06:58:36;;;;;;;9.25;2.78;;;25.20;76.80;;;26.46;50.69;100756.84;5071522;28;20070;-80
2022/07/19 07:01:03;;;;;;;8.38;2.60;;;25.20;75.90;;;26.50;51.29;100760.78;5072320;28;20666;-80
2022/07/19 07:03:30;;;;;;;5.75;2.60;;;25.20;76.60;;;26.51;51.48;100759.63;5072341;28;20120;-80
2022/07/19 07:05:59;;;;;;;12.38;2.80;;;25.20;76.70;;;26.49;50.96;100761.88;5072206;28;20552;-80
2022/07/19 07:08:26;;;;;;;7.97;2.83;;;25.20;77.30;;;26.55;50.30;100759.06;5071595;28;20132;-80
2022/07/19 07:10:53;;;;;;;8.82;2.70;;;25.20;75.60;;;26.61;50.13;100761.56;5072228;28;20067;-80
2022/07/19 07:13:20;;;;;;;7.47;2.88;;;25.20;75.60;;;26.63;52.22;100764.91;5072212;28;20127;-80
2022/07/19 07:15:47;;;;;;;13.05;2.80;;;25.20;77.80;;;26.70;51.95;100767.41;5072101;28;20043;-80
2022/07/19 07:18:15;;;;;;;12.82;2.58;;;25.30;77.20;;;26.71;50.04;100758.75;5071794;28;20040;-80
2022/07/19 07:20:42;;;;;;;10.77;2.90;;;25.20;76.50;;;26.74;50.30;100762.91;5071687;28;20547;-80
2022/07/19 07:23:11;;;;;;;8.85;2.33;;;25.30;76.10;;;26.73;49.35;100755.66;5072020;28;20165;-80
2022/07/19 07:25:38;;;;;;;6.20;2.63;;;25.30;74.80;;;26.70;49.89;100757.06;5071791;28;20135;-80
2022/07/19 07:28:05;;;;;;;8.45;2.72;;;25.40;75.00;;;26.71;50.07;100755.09;5071866;28;20552;-80
2022/07/19 07:30:33;;;;;;;8.80;2.60;;;25.40;74.60;;;26.69;52.40;100755.41;5071077;28;20050;-80
2022/07/19 07:33:00;;;;;;;9.52;2.65;;;25.50;76.70;;;26.70;49.81;100757.06;5071829;28;20120;-80
2022/07/19 07:35:27;;;;;;;10.02;2.50;;;25.50;74.30;;;26.73;51.84;100761.22;5068992;28;20124;-80
2022/07/19 07:37:54;;;;;;;7.85;2.50;;;25.50;75.90;;;26.76;49.20;100757.88;5071401;28;20128;-80
2022/07/19 07:40:23;;;;;;;13.60;2.65;;;25.50;74.00;;;26.79;50.35;100754.53;5070455;28;20051;-80
2022/07/19 07:42:50;;;;;;;8.25;2.63;;;25.60;74.60;;;26.78;50.17;100758.41;5071729;28;20047;-80
2022/07/19 07:45:17;;;;;;;8.40;2.47;;;25.60;74.10;;;26.86;51.34;100763.41;5071704;28;20497;-80
2022/07/19 07:47:45;;;;;;;8.50;2.80;;;25.60;75.50;;;26.88;51.59;100758.38;5071712;28;20505;-80
2022/07/19 07:50:12;;;;;;;5.88;2.80;;;25.70;75.70;;;26.95;51.78;100757.22;5070681;28;20075;-80
2022/07/19 07:52:39;;;;;;;7.50;2.47;;;25.80;75.60;;;27.06;49.48;100754.06;5071564;28;20509;-80
2022/07/19 07:55:07;;;;;;;8.63;2.55;;;25.80;73.20;;;27.20;47.70;100750.63;5071217;28;20574;-80
2022/07/19 07:57:36;;;;;;;4.60;2.10;;;25.90;71.40;;;27.28;50.13;100745.28;5071325;28;20139;-80
2022/07/19 08:00:04;;;;;;;8.02;2.55;;;25.90;73.70;;;27.35;52.50;100758.09;5070393;28;20072;-80
2022/07/19 08:02:40;;;;;;;6.53;2.33;;;26.10;76.60;;;27.35;47.48;100755.31;5071268;28;20057;-80
2022/07/19 08:05:08;;;;;;;8.65;2.92;;;26.10;71.30;;;27.42;49.76;100751.03;5070948;28;20051;-80
2022/07/19 08:07:35;;;;;;;9.35;2.50;;;26.20;74.20;;;27.60;49.41;100746.69;5071034;28;20041;-80
2022/07/19 08:10:04;;;;;;;9.55;2.58;;;26.30;73.20;;;27.76;50.29;100749.34;5070242;28;20447;-80
2022/07/19 08:12:31;;;;;;;9.02;2.10;;;26.40;73.50;;;27.87;45.90;100739.72;5070602;28;20032;-80
2022/07/19 08:14:59;;;;;;;7.88;2.50;;;26.50;69.20;;;28.01;41.24;100740.72;5070944;28;20123;-80
2022/07/19 08:17:27;;;;;;;9.38;2.40;;;26.60;64.10;;;28.15;47.52;100740.03;5070971;28;20051;-80
2022/07/19 08:19:54;;;;;;;7.88;2.40;;;26.80;70.30;;;28.24;46.08;100739.06;5070090;28;20051;-80
2022/07/19 08:22:21;;;;;;;9.90;2.40;;;26.80;69.30;;;28.31;41.54;100737.88;5070940;28;20051;-80
2022/07/19 08:24:48;;;;;;;8.18;2.60;;;26.90;64.60;;;28.39;43.41;100737.22;5070950;28;20052;-80
2022/07/19 08:27:15;;;;;;;6.15;2.33;;;27.00;66.10;;;28.44;42.45;100732.41;5070880;28;20044;-80
2022/07/19 08:29:42;;;;;;;5.97;2.50;;;27.00;63.70;;;28.57;40.35;100724.41;5069862;28;20082;-80
2022/07/19 08:32:11;;;;;;;13.35;2.38;;;27.10;63.10;;;28.62;40.16;100727.97;5070653;28;20132;-80
2022/07/19 08:34:38;;;;;;;8.75;2.50;;;27.20;62.20;;;28.69;39.12;100727.59;5070402;28;20044;-80
2022/07/19 08:37:05;;;;;;;8.73;2.55;;;27.30;60.80;;;28.75;38.84;100720.81;5070464;28;20036;-80
2022/07/19 08:39:33;;;;;;;7.18;2.35;;;27.40;60.20;;;28.80;40.29;100720.72;5069623;28;20044;-80
2022/07/19 08:42:00;;;;;;;7.75;2.22;;;27.40;62.20;;;28.88;38.31;100723.97;5070452;28;20127;-80
2022/07/19 08:44:28;;;;;;;4.18;1.80;;;27.50;59.50;;;28.98;39.72;100729.44;5070406;28;20133;-81
2022/07/19 08:46:55;;;;;;;7.00;2.47;;;27.60;60.20;;;29.03;39.75;100727.41;5070292;28;20068;-80
2022/07/19 08:49:25;;;;;;;5.50;2.13;;;27.70;60.50;;;29.06;37.30;100714.75;5069651;28;20048;-80
2022/07/19 08:51:53;;;;;;;7.97;2.08;;;27.70;57.60;;;29.11;39.08;100719.41;5070345;28;20044;-80
2022/07/19 08:54:20;;;;;;;10.50;2.67;;;27.70;59.60;;;29.17;37.21;100715.44;5070336;28;20048;-80
2022/07/19 08:59:33;;;;;;;5.80;2.40;;;27.90;57.40;;;29.34;38.00;100715.72;5069357;28;20044;-80
2022/07/19 09:02:00;;;;;;;12.23;3.22;;;28.00;58.50;;;29.39;37.87;100717.59;5069705;28;20050;-81
2022/07/19 09:04:30;;;;;;;11.35;2.50;;;28.10;58.20;;;29.38;36.39;100715.94;5069973;28;20301;-80
2022/07/19 09:06:58;;;;;;;6.32;2.28;;;28.10;57.30;;;29.47;35.78;100724.47;5069963;28;20044;-80
2022/07/19 09:09:28;;;;;;;6.60;2.15;;;28.10;56.20;;;29.53;36.46;100718.47;5069097;28;20049;-80
2022/07/19 09:11:57;;;;;;;4.30;1.88;;;28.10;57.00;;;29.50;35.76;100716.28;5069937;28;20044;-81
2022/07/19 09:14:27;;;;;;;13.48;2.55;;;28.10;56.30;;;29.54;36.20;100711.72;5069846;28;20111;-81
2022/07/19 09:17:03;;;;;;;5.35;2.20;;;28.10;56.80;;;29.61;35.63;100717.75;5069869;28;20036;-81
2022/07/19 09:19:35;;;;;;;7.82;2.40;;;28.10;56.40;;;29.69;35.43;100721.00;5069110;28;20044;-81
2022/07/19 09:22:04;;;;;;;7.10;2.42;;;28.20;55.70;;;29.67;34.63;100707.28;5070018;28;20501;-81
2022/07/19 09:24:34;;;;;;;8.55;2.60;;;28.30;54.40;;;29.69;33.27;100710.59;5069760;28;20045;-81
2022/07/19 09:27:05;;;;;;;7.20;2.75;;;28.40;53.20;;;29.70;38.13;100705.81;5066562;28;20033;-80
2022/07/19 09:29:35;;;;;;;6.47;2.53;;;28.40;57.60;;;29.75;35.42;100717.00;5069161;28;20051;-81
2022/07/19 09:32:10;;;;;;;5.43;2.13;;;28.40;55.20;;;29.68;33.97;100714.53;5069953;28;20072;-81
2022/07/19 09:34:42;;;;;;;5.88;2.03;;;28.50;53.10;;;29.74;35.45;100713.34;5069835;28;20135;-81
2022/07/19 09:37:15;;;;;;;7.05;2.40;;;28.50;54.40;;;29.75;32.84;100714.19;5069621;28;20553;-81
2022/07/19 09:39:45;;;;;;;7.40;2.28;;;28.60;51.70;;;29.77;35.58;100701.50;5069126;28;20460;-81
2022/07/19 09:42:14;;;;;;;7.27;2.30;;;28.50;55.00;;;29.83;35.92;100705.03;5070034;28;20578;-81
2022/07/19 09:44:42;;;;;;;8.20;2.85;;;28.50;55.80;;;29.85;34.83;100697.16;5069431;28;20047;-81
2022/07/19 09:47:10;;;;;;;6.28;2.45;;;28.60;53.80;;;29.94;33.92;100700.91;5069582;28;20698;-81
2022/07/19 09:49:38;;;;;;;5.63;2.50;;;28.70;53.80;;;29.92;34.31;100697.56;5068654;28;20128;-81
2022/07/19 09:52:06;;;;;;;8.30;2.67;;;28.60;53.30;;;30.03;33.41;100692.59;5069544;28;20491;-81
2022/07/19 09:54:33;;;;;;;8.00;2.40;;;28.70;52.40;;;30.11;34.93;100699.47;5069530;28;20055;-81
2022/07/19 09:57:02;;;;;;;6.10;2.03;;;28.80;54.70;;;30.20;36.39;100691.97;5069539;28;20076;-81
2022/07/19 09:59:29;;;;;;;5.68;2.35;;;29.00;55.90;;;30.18;34.94;100691.47;5068809;28;20041;-81
2022/07/19 10:01:57;;;;;;;4.07;2.13;;;28.90;54.50;;;30.20;34.58;100691.97;5069484;28;20558;-81
2022/07/19 10:04:27;;;;;;;7.60;2.33;;;28.90;53.90;;;30.19;32.04;100691.13;5069380;28;20037;-81
2022/07/19 10:06:56;;;;;;;8.05;2.53;;;28.90;50.90;;;30.21;33.12;100690.81;5069509;28;20119;-81
2022/07/19 10:09:24;;;;;;;5.20;2.38;;;28.80;52.00;;;30.24;32.95;100697.81;5068565;28;20519;-81
2022/07/19 10:11:54;;;;;;;6.10;2.10;;;28.80;51.90;;;30.29;33.60;100694.88;5069382;28;20065;-81
2022/07/19 10:14:21;;;;;;;4.65;2.15;;;28.80;52.50;;;30.30;31.78;100686.13;5071622;28;20040;-81
2022/07/19 10:17:15;;;;;;;5.32;2.25;;;28.90;50.40;;;30.24;32.26;100686.56;5073222;28;20159;-81